createdAt,value
2023-01-08T00:00:07.616Z,1.77
2023-01-08T00:02:34.269Z,1.79
2023-01-08T00:05:00.947Z,1.74
2023-01-08T00:07:27.609Z,1.69
2023-01-08T00:09:54.993Z,1.63
2023-01-08T00:12:21.620Z,1.60
2023-01-08T00:14:48.249Z,1.48
2023-01-08T00:17:14.876Z,1.49
2023-01-08T00:19:42.252Z,1.40
2023-01-08T00:22:08.940Z,1.30
2023-01-08T00:24:35.580Z,1.18
2023-01-08T00:27:02.220Z,1.33
2023-01-08T00:29:29.353Z,1.29
2023-01-08T00:31:55.985Z,1.27
2023-01-08T00:34:22.667Z,1.22
2023-01-08T00:36:49.286Z,1.16
2023-01-08T00:39:15.942Z,1.18
2023-01-08T00:41:45.356Z,1.16
2023-01-08T00:44:11.991Z,1.14
2023-01-08T00:46:38.632Z,1.18
2023-01-08T00:49:05.343Z,1.04
2023-01-08T00:51:32.064Z,1.03
2023-01-08T00:53:59.335Z,1.16
2023-01-08T00:56:26.060Z,1.18
2023-01-08T00:58:52.857Z,1.20
2023-01-08T01:01:19.612Z,1.29
2023-01-08T01:03:46.510Z,1.34
2023-01-08T01:06:14.098Z,1.38
2023-01-08T01:08:41.045Z,1.44
2023-01-08T01:11:10.576Z,1.38
2023-01-08T01:13:37.603Z,1.32
2023-01-08T01:16:04.596Z,1.33
2023-01-08T01:18:31.972Z,1.30
2023-01-08T01:20:58.649Z,1.37
2023-01-08T01:23:25.448Z,1.47
2023-01-08T01:25:52.171Z,1.53
2023-01-08T01:28:18.812Z,1.62
2023-01-08T01:30:45.561Z,1.62
2023-01-08T01:33:12.210Z,1.77
2023-01-08T01:35:38.862Z,1.77
2023-01-08T01:38:05.549Z,1.76
2023-01-08T01:40:32.191Z,1.74
2023-01-08T01:42:58.819Z,1.77
2023-01-08T01:45:28.405Z,1.78
2023-01-08T01:48:19.712Z,1.75
2023-01-08T01:50:50.272Z,1.59
2023-01-08T01:53:27.197Z,1.58
2023-01-08T01:55:54.098Z,1.52
2023-01-08T01:58:26.105Z,1.47
2023-01-08T02:00:54.383Z,1.40
2023-01-08T02:03:26.001Z,1.47
2023-01-08T02:06:49.559Z,1.49
2023-01-08T02:09:23.415Z,1.37
2023-01-08T02:12:14.882Z,1.43
2023-01-08T02:14:57.260Z,1.35
2023-01-08T02:17:43.227Z,1.40
2023-01-08T02:20:13.479Z,1.56
2023-01-08T02:23:16.645Z,1.63
2023-01-08T02:26:03.349Z,1.60
2023-01-08T02:28:32.704Z,1.63
2023-01-08T02:31:00.330Z,1.58
2023-01-08T02:33:31.844Z,1.56
2023-01-08T02:36:50.969Z,1.57
2023-01-08T02:40:02.956Z,1.42
2023-01-08T02:42:40.584Z,1.35
2023-01-08T02:45:53.468Z,1.36
2023-01-08T02:48:48.820Z,1.34
2023-01-08T02:51:29.134Z,1.31
2023-01-08T02:54:01.777Z,1.35
2023-01-08T02:56:35.962Z,1.33
2023-01-08T02:59:05.328Z,1.37
2023-01-08T03:01:33.817Z,1.31
2023-01-08T03:04:06.773Z,1.42
2023-01-08T03:06:33.787Z,1.44
2023-01-08T03:09:00.924Z,1.47
2023-01-08T03:11:32.798Z,1.46
2023-01-08T03:14:20.257Z,1.48
2023-01-08T03:16:58.155Z,1.35
2023-01-08T03:19:41.328Z,1.26
2023-01-08T03:22:12.277Z,1.26
2023-01-08T03:24:41.568Z,1.24
2023-01-08T03:27:14.555Z,1.10
2023-01-08T03:29:41.433Z,1.04
2023-01-08T03:32:13.870Z,1.04
2023-01-08T03:34:43.896Z,0.96
2023-01-08T03:37:13.707Z,0.94
2023-01-08T03:39:56.063Z,0.87
2023-01-08T03:42:23.511Z,0.93
2023-01-08T03:44:50.190Z,0.94
2023-01-08T03:47:18.673Z,0.86
2023-01-08T03:49:46.853Z,0.67
2023-01-08T03:52:24.455Z,0.42
2023-01-08T03:54:51.260Z,0.18
2023-01-08T03:57:18.005Z,0.04
2023-01-08T03:59:44.715Z,0.22
2023-01-08T04:02:11.445Z,0.17
2023-01-08T04:04:38.236Z,0.17
2023-01-08T04:07:05.205Z,0.21
2023-01-08T04:09:31.840Z,0.26
2023-01-08T04:11:58.487Z,0.24
2023-01-08T04:14:25.186Z,0.32
2023-01-08T04:16:51.803Z,0.34
2023-01-08T04:19:18.444Z,0.28
2023-01-08T04:21:45.144Z,0.32
2023-01-08T04:24:12.822Z,0.35
2023-01-08T04:26:39.546Z,0.47
2023-01-08T04:29:06.193Z,0.45
2023-01-08T04:31:33.070Z,0.50
2023-01-08T04:33:59.770Z,0.55
2023-01-08T04:36:26.480Z,0.36
2023-01-08T04:38:53.188Z,0.32
2023-01-08T04:41:19.827Z,0.33
2023-01-08T04:43:46.496Z,0.40
2023-01-08T04:46:13.348Z,0.29
2023-01-08T04:48:40.362Z,0.36
2023-01-08T04:51:07.109Z,0.36
2023-01-08T04:53:35.773Z,0.29
2023-01-08T04:56:08.092Z,0.12
2023-01-08T04:58:35.671Z,0.13
2023-01-08T05:01:20.101Z,0.12
2023-01-08T05:03:46.891Z,0.33
2023-01-08T05:06:13.868Z,0.41
2023-01-08T05:08:40.498Z,0.53
2023-01-08T05:11:07.097Z,0.62
2023-01-08T05:13:33.934Z,0.58
2023-01-08T05:16:01.633Z,0.62
2023-01-08T05:18:29.595Z,0.62
2023-01-08T05:21:03.443Z,0.62
2023-01-08T05:23:31.157Z,0.66
2023-01-08T05:26:03.058Z,0.63
2023-01-08T05:28:30.395Z,0.72
2023-01-08T05:30:57.843Z,0.84
2023-01-08T05:33:25.459Z,0.81
2023-01-08T05:35:52.202Z,0.87
2023-01-08T05:38:18.989Z,0.88
2023-01-08T05:40:45.649Z,0.94
2023-01-08T05:43:12.894Z,0.95
2023-01-08T05:45:39.567Z,1.06
2023-01-08T05:48:07.255Z,1.14
2023-01-08T05:50:34.628Z,1.24
2023-01-08T05:53:01.358Z,1.07
2023-01-08T05:55:28.014Z,1.04
2023-01-08T05:57:54.658Z,1.03
2023-01-08T06:00:21.309Z,1.12
2023-01-08T06:02:48.881Z,1.26
2023-01-08T06:05:15.819Z,1.36
2023-01-08T06:07:42.468Z,1.44
2023-01-08T06:10:09.547Z,1.45
2023-01-08T06:12:36.581Z,1.66
2023-01-08T06:15:04.378Z,1.60
2023-01-08T06:17:30.991Z,1.46
2023-01-08T06:19:57.866Z,1.25
2023-01-08T06:22:24.475Z,1.26
2023-01-08T06:24:51.097Z,1.17
2023-01-08T06:27:17.824Z,1.11
2023-01-08T06:29:44.427Z,0.93
2023-01-08T06:32:11.191Z,1.02
2023-01-08T06:34:37.908Z,0.92
2023-01-08T06:37:04.551Z,0.84
2023-01-08T06:39:31.222Z,0.82
2023-01-08T06:41:57.831Z,0.69
2023-01-08T06:44:24.472Z,0.70
2023-01-08T06:46:51.625Z,0.77
2023-01-08T06:49:19.865Z,0.70
2023-01-08T06:51:46.529Z,0.79
2023-01-08T06:54:13.716Z,0.81
2023-01-08T06:56:52.939Z,0.95
2023-01-08T07:00:04.271Z,0.95
2023-01-08T07:02:31.019Z,0.87
2023-01-08T07:04:57.737Z,1.01
2023-01-08T07:07:24.387Z,1.06
2023-01-08T07:09:51.318Z,0.98
2023-01-08T07:12:17.953Z,1.16
2023-01-08T07:14:44.561Z,1.21
2023-01-08T07:17:11.330Z,1.15
2023-01-08T07:19:38.024Z,1.02
2023-01-08T07:22:04.718Z,1.03
2023-01-08T07:24:31.375Z,1.15
2023-01-08T07:26:58.000Z,1.06
2023-01-08T07:29:24.618Z,1.05
2023-01-08T07:31:51.363Z,1.11
2023-01-08T07:34:18.046Z,1.22
2023-01-08T07:36:44.755Z,1.27
2023-01-08T07:39:11.406Z,1.35
2023-01-08T07:41:38.030Z,1.37
2023-01-08T07:44:04.667Z,1.43
2023-01-08T07:46:31.443Z,1.49
2023-01-08T07:48:59.138Z,1.55
2023-01-08T07:51:25.769Z,1.59
2023-01-08T07:53:52.391Z,1.67
2023-01-08T07:56:18.999Z,1.74
2023-01-08T07:58:45.642Z,1.63
2023-01-08T08:01:12.524Z,1.74
2023-01-08T08:03:39.594Z,1.68
2023-01-08T08:06:06.740Z,1.69
2023-01-08T08:08:33.834Z,1.65
2023-01-08T08:11:00.456Z,1.76
2023-01-08T08:13:27.163Z,1.81
2023-01-08T08:15:53.994Z,1.84
2023-01-08T08:18:20.668Z,1.90
2023-01-08T08:20:47.551Z,1.81
2023-01-08T08:23:15.125Z,1.89
2023-01-08T08:25:42.840Z,1.76
2023-01-08T08:28:11.850Z,1.88
2023-01-08T08:30:41.961Z,1.90
2023-01-08T08:33:09.812Z,1.97
2023-01-08T08:35:37.082Z,2.04
2023-01-08T08:38:03.891Z,2.13
2023-01-08T08:40:30.688Z,2.22
2023-01-08T08:42:58.642Z,2.31
2023-01-08T08:45:25.536Z,2.31
2023-01-08T08:47:52.223Z,2.27
2023-01-08T08:50:19.466Z,2.16
2023-01-08T08:52:46.942Z,2.16
2023-01-08T08:55:16.038Z,2.24
2023-01-08T08:57:44.241Z,2.43
2023-01-08T09:00:11.867Z,2.54
2023-01-08T09:02:38.918Z,2.60
2023-01-08T09:05:06.389Z,2.60
2023-01-08T09:07:33.276Z,2.69
2023-01-08T09:09:59.879Z,2.77
2023-01-08T09:12:26.495Z,2.78
2023-01-08T09:14:54.799Z,2.79
2023-01-08T09:17:21.668Z,2.57
2023-01-08T09:19:48.336Z,2.41
2023-01-08T09:22:15.022Z,2.53
2023-01-08T09:24:41.654Z,2.56
2023-01-08T09:27:10.931Z,2.53
2023-01-08T09:29:37.704Z,2.53
2023-01-08T09:32:07.296Z,2.34
2023-01-08T09:34:36.289Z,2.32
2023-01-08T09:37:03.949Z,2.34
2023-01-08T09:39:30.821Z,2.45
2023-01-08T09:42:01.027Z,2.54
2023-01-08T09:44:33.932Z,2.50
2023-01-08T09:47:00.892Z,2.62
2023-01-08T09:49:42.494Z,2.54
2023-01-08T09:52:12.402Z,2.65
2023-01-08T09:54:40.483Z,2.73
2023-01-08T09:57:13.506Z,2.76
2023-01-08T09:59:40.408Z,2.67
2023-01-08T10:02:13.856Z,2.76
2023-01-08T10:04:41.535Z,2.75
2023-01-08T10:07:34.167Z,2.79
2023-01-08T10:10:00.882Z,2.78
2023-01-08T10:12:30.211Z,2.75
2023-01-08T10:15:00.700Z,2.75
2023-01-08T10:17:36.159Z,2.52
2023-01-08T10:20:11.222Z,2.45
2023-01-08T10:22:37.845Z,2.47
2023-01-08T10:25:22.422Z,2.66
2023-01-08T10:27:54.575Z,2.65
2023-01-08T10:30:37.434Z,2.80
2023-01-08T10:33:14.786Z,2.94
2023-01-08T10:35:43.114Z,3.01
2023-01-08T10:38:33.636Z,2.95
2023-01-08T10:41:03.469Z,2.92
2023-01-08T10:43:35.081Z,2.92
2023-01-08T10:46:23.893Z,3.04
2023-01-08T10:49:00.314Z,3.07
2023-01-08T10:51:29.555Z,3.12
2023-01-08T10:54:01.025Z,3.22
2023-01-08T10:56:30.249Z,3.23
2023-01-08T10:58:57.027Z,3.28
2023-01-08T11:01:26.054Z,3.32
2023-01-08T11:03:56.658Z,3.23
2023-01-08T11:06:27.568Z,3.38
2023-01-08T11:08:57.822Z,3.40
2023-01-08T11:11:31.702Z,3.32
2023-01-08T11:14:00.947Z,3.32
2023-01-08T11:16:46.439Z,3.39
2023-01-08T11:19:19.770Z,3.28
2023-01-08T11:22:00.881Z,3.24
2023-01-08T11:24:38.468Z,3.19
2023-01-08T11:27:39.557Z,3.26
2023-01-08T11:30:28.009Z,3.28
2023-01-08T11:33:13.225Z,3.35
2023-01-08T11:35:46.200Z,3.37
2023-01-08T11:38:13.254Z,3.49
2023-01-08T11:40:55.051Z,3.47
2023-01-08T11:43:57.253Z,3.51
2023-01-08T11:46:43.992Z,3.55
2023-01-08T11:49:59.696Z,3.49
2023-01-08T11:52:59.519Z,3.48
2023-01-08T11:55:52.673Z,3.46
2023-01-08T11:58:40.836Z,3.62
2023-01-08T12:01:39.501Z,3.61
2023-01-08T12:04:58.343Z,3.64
2023-01-08T12:08:21.991Z,3.55
2023-01-08T12:11:16.587Z,3.68
2023-01-08T12:14:28.403Z,3.65
2023-01-08T12:17:19.598Z,3.73
2023-01-08T12:20:27.644Z,3.79
2023-01-08T12:23:14.932Z,3.76
2023-01-08T12:26:24.942Z,3.78
2023-01-08T12:29:28.198Z,3.79
2023-01-08T12:32:24.157Z,3.80
2023-01-08T12:35:00.425Z,3.65
2023-01-08T12:37:52.304Z,3.60
2023-01-08T12:40:35.121Z,3.57
2023-01-08T12:43:05.923Z,3.58
2023-01-08T12:45:40.621Z,3.67
2023-01-08T12:48:12.545Z,3.57
2023-01-08T12:51:07.994Z,3.54
2023-01-08T12:53:48.911Z,3.54
2023-01-08T12:56:54.518Z,3.67
2023-01-08T12:59:41.334Z,3.65
2023-01-08T13:02:23.431Z,3.73
2023-01-08T13:04:50.244Z,3.83
2023-01-08T13:07:21.376Z,3.78
2023-01-08T13:10:01.765Z,3.89
2023-01-08T13:12:36.674Z,3.65
2023-01-08T13:15:04.776Z,3.69
2023-01-08T13:17:31.502Z,3.73
2023-01-08T13:20:04.363Z,3.79
2023-01-08T13:22:35.935Z,3.72
2023-01-08T13:25:30.621Z,3.71
2023-01-08T13:27:58.007Z,3.66
2023-01-08T13:30:51.014Z,3.77
2023-01-08T13:33:28.277Z,3.76
2023-01-08T13:36:40.095Z,3.76
2023-01-08T13:39:23.194Z,3.66
2023-01-08T13:42:21.465Z,3.70
2023-01-08T13:44:57.685Z,3.80
2023-01-08T13:47:35.948Z,3.77
2023-01-08T13:50:16.185Z,3.82
2023-01-08T13:52:48.994Z,3.80
2023-01-08T13:55:20.462Z,3.74
2023-01-08T13:57:52.052Z,3.64
2023-01-08T14:00:28.962Z,3.62
2023-01-08T14:02:55.698Z,3.60
2023-01-08T14:05:23.731Z,3.69
2023-01-08T14:07:50.464Z,3.69
2023-01-08T14:10:17.874Z,3.62
2023-01-08T14:12:45.197Z,3.62
2023-01-08T14:15:26.049Z,3.66
2023-01-08T14:17:53.997Z,3.60
2023-01-08T14:20:31.674Z,3.42
2023-01-08T14:22:59.973Z,3.40
2023-01-08T14:25:26.892Z,3.49
2023-01-08T14:28:18.124Z,3.31
2023-01-08T14:30:52.365Z,3.34
2023-01-08T14:33:32.107Z,3.34
2023-01-08T14:36:00.638Z,3.33
2023-01-08T14:38:27.362Z,3.33
2023-01-08T14:41:53.095Z,3.12
2023-01-08T14:44:29.136Z,3.16
2023-01-08T14:47:03.568Z,3.14
2023-01-08T14:49:34.251Z,3.20
2023-01-08T14:52:02.797Z,3.32
2023-01-08T14:54:33.958Z,3.26
2023-01-08T14:57:02.047Z,3.21
2023-01-08T14:59:33.697Z,3.13
2023-01-08T15:02:02.726Z,3.15
2023-01-08T15:04:30.666Z,3.13
2023-01-08T15:07:16.520Z,3.13
2023-01-08T15:09:43.170Z,3.08
2023-01-08T15:12:27.062Z,2.92
2023-01-08T15:14:55.264Z,3.06
2023-01-08T15:17:28.112Z,2.96
2023-01-08T15:19:58.298Z,2.90
2023-01-08T15:22:27.827Z,3.00
2023-01-08T15:25:01.209Z,2.63
2023-01-08T15:27:28.416Z,2.77
2023-01-08T15:30:00.261Z,2.73
2023-01-08T15:32:34.839Z,2.87
2023-01-08T15:35:01.433Z,2.89
2023-01-08T15:37:30.633Z,2.92
2023-01-08T15:39:57.264Z,2.95
2023-01-08T15:42:51.089Z,3.01
2023-01-08T15:45:22.925Z,3.00
2023-01-08T15:47:51.954Z,2.89
2023-01-08T15:50:20.393Z,2.88
2023-01-08T15:52:47.640Z,2.72
2023-01-08T15:55:19.697Z,2.86
2023-01-08T15:57:46.619Z,2.90
2023-01-08T16:00:15.057Z,2.96
2023-01-08T16:02:49.901Z,3.03
2023-01-08T16:05:17.997Z,3.03
2023-01-08T16:07:48.181Z,3.01
2023-01-08T16:10:16.491Z,3.04
2023-01-08T16:12:45.975Z,3.07
2023-01-08T16:15:14.633Z,2.88
2023-01-08T16:17:42.182Z,2.85
2023-01-08T16:20:09.730Z,2.89
2023-01-08T16:22:36.379Z,2.80
2023-01-08T16:25:03.529Z,2.93
2023-01-08T16:27:34.210Z,2.98
2023-01-08T16:30:00.852Z,2.93
2023-01-08T16:32:27.463Z,2.92
2023-01-08T16:34:55.038Z,3.01
2023-01-08T16:37:22.214Z,3.03
2023-01-08T16:39:48.939Z,3.10
2023-01-08T16:42:15.623Z,3.14
2023-01-08T16:44:42.522Z,3.16
2023-01-08T16:47:09.143Z,3.22
2023-01-08T16:49:36.136Z,3.17
2023-01-08T16:52:02.965Z,3.14
2023-01-08T16:54:29.654Z,3.12
2023-01-08T16:56:56.308Z,3.12
2023-01-08T16:59:24.771Z,3.18
2023-01-08T17:01:52.468Z,3.13
2023-01-08T17:04:19.512Z,3.16
2023-01-08T17:06:46.996Z,3.20
2023-01-08T17:09:14.666Z,3.08
2023-01-08T17:11:41.811Z,3.09
2023-01-08T17:14:08.862Z,3.05
2023-01-08T17:16:35.527Z,3.13
2023-01-08T17:19:02.301Z,3.12
2023-01-08T17:21:28.989Z,3.18
2023-01-08T17:23:55.589Z,3.11
2023-01-08T17:26:22.335Z,3.08
2023-01-08T17:28:49.016Z,2.96
2023-01-08T17:31:19.711Z,3.01
2023-01-08T17:33:50.641Z,3.07
2023-01-08T17:36:36.122Z,3.03
2023-01-08T17:39:03.490Z,2.99
2023-01-08T17:41:48.694Z,2.99
2023-01-08T17:44:15.397Z,2.99
2023-01-08T17:46:45.073Z,3.03
2023-01-08T17:49:14.055Z,3.04
2023-01-08T17:51:41.953Z,2.98
2023-01-08T17:54:17.032Z,3.08
2023-01-08T17:56:44.110Z,3.02
2023-01-08T17:59:15.973Z,3.06
2023-01-08T18:01:45.129Z,3.10
2023-01-08T18:04:12.509Z,3.09
2023-01-08T18:06:39.198Z,3.08
2023-01-08T18:09:05.893Z,3.07
2023-01-08T18:11:33.244Z,3.07
2023-01-08T18:14:01.499Z,2.99
2023-01-08T18:16:29.067Z,3.02
2023-01-08T18:18:57.204Z,2.97
2023-01-08T18:21:24.817Z,2.94
2023-01-08T18:23:51.509Z,2.97
2023-01-08T18:26:20.710Z,3.03
2023-01-08T18:28:48.174Z,2.93
2023-01-08T18:31:15.069Z,3.00
2023-01-08T18:33:41.759Z,3.07
2023-01-08T18:36:11.835Z,3.09
2023-01-08T18:38:40.766Z,3.01
2023-01-08T18:41:07.661Z,3.02
2023-01-08T18:43:35.779Z,3.02
2023-01-08T18:46:05.509Z,3.06
2023-01-08T18:48:33.279Z,3.06
2023-01-08T18:51:05.490Z,3.16
2023-01-08T18:53:33.580Z,3.05
2023-01-08T18:56:01.277Z,3.06
2023-01-08T18:58:29.270Z,3.07
2023-01-08T19:00:56.071Z,2.99
2023-01-08T19:03:22.747Z,2.85
2023-01-08T19:05:49.585Z,2.85
2023-01-08T19:08:16.299Z,2.83
2023-01-08T19:10:42.881Z,2.81
2023-01-08T19:13:09.731Z,2.79
2023-01-08T19:15:36.360Z,2.76
2023-01-08T19:18:05.582Z,2.75
2023-01-08T19:20:32.289Z,2.74
2023-01-08T19:22:58.875Z,2.75
2023-01-08T19:25:25.464Z,2.74
2023-01-08T19:27:52.065Z,2.75
2023-01-08T19:30:18.909Z,2.71
2023-01-08T19:32:48.845Z,2.72
2023-01-08T19:35:15.546Z,2.68
2023-01-08T19:37:43.116Z,2.68
2023-01-08T19:40:10.743Z,2.72
2023-01-08T19:42:56.026Z,2.69
2023-01-08T19:45:22.726Z,2.53
2023-01-08T19:47:49.346Z,2.54
2023-01-08T19:50:16.453Z,2.56
2023-01-08T19:52:43.087Z,2.56
2023-01-08T19:55:09.869Z,2.58
2023-01-08T19:57:36.499Z,2.69
2023-01-08T20:00:04.631Z,2.69
2023-01-08T20:02:32.392Z,2.70
2023-01-08T20:04:59.125Z,2.65
2023-01-08T20:07:25.869Z,2.70
2023-01-08T20:09:52.610Z,2.62
2023-01-08T20:12:19.365Z,2.58
2023-01-08T20:14:46.427Z,2.55
2023-01-08T20:17:13.046Z,2.62
2023-01-08T20:19:39.657Z,2.60
2023-01-08T20:22:06.257Z,2.68
2023-01-08T20:24:32.902Z,2.68
2023-01-08T20:26:59.747Z,2.73
2023-01-08T20:29:27.254Z,2.69
2023-01-08T20:31:57.358Z,2.70
2023-01-08T20:34:25.101Z,2.70
2023-01-08T20:36:51.977Z,2.76
2023-01-08T20:39:19.561Z,2.83
2023-01-08T20:41:55.457Z,2.79
2023-01-08T20:44:30.456Z,2.61
2023-01-08T20:46:57.114Z,2.50
2023-01-08T20:49:25.292Z,2.42
2023-01-08T20:51:58.586Z,2.51
2023-01-08T20:54:26.189Z,2.47
2023-01-08T20:56:55.444Z,2.53
2023-01-08T20:59:24.055Z,2.47
2023-01-08T21:01:50.972Z,2.41
2023-01-08T21:04:18.650Z,2.46
2023-01-08T21:06:45.553Z,2.56
2023-01-08T21:09:12.261Z,2.53
2023-01-08T21:11:40.456Z,2.40
2023-01-08T21:14:08.322Z,2.45
2023-01-08T21:16:35.785Z,2.61
2023-01-08T21:19:03.652Z,2.62
2023-01-08T21:21:35.341Z,2.67
2023-01-08T21:24:05.089Z,2.72
2023-01-08T21:26:33.852Z,2.68
2023-01-08T21:29:03.099Z,2.70
2023-01-08T21:31:30.296Z,2.67
2023-01-08T21:33:59.365Z,2.70
2023-01-08T21:36:28.464Z,2.80
2023-01-08T21:39:00.407Z,2.77
2023-01-08T21:41:47.130Z,2.76
2023-01-08T21:44:35.696Z,2.78
2023-01-08T21:47:04.073Z,2.73
2023-01-08T21:49:31.737Z,2.70
2023-01-08T21:52:17.189Z,2.69
2023-01-08T21:54:43.761Z,2.80
2023-01-08T21:57:10.496Z,2.69
2023-01-08T21:59:37.286Z,2.64
2023-01-08T22:02:05.200Z,2.69
2023-01-08T22:04:32.643Z,2.73
2023-01-08T22:06:59.310Z,2.75
2023-01-08T22:09:25.945Z,2.74
2023-01-08T22:11:54.897Z,2.80
2023-01-08T22:14:21.771Z,2.74
2023-01-08T22:16:48.468Z,2.66
2023-01-08T22:19:15.139Z,2.56
2023-01-08T22:21:41.790Z,2.64
2023-01-08T22:24:08.522Z,2.65
2023-01-08T22:26:35.588Z,2.62
2023-01-08T22:29:03.860Z,2.65
2023-01-08T22:31:30.556Z,2.68
2023-01-08T22:33:57.906Z,2.72
2023-01-08T22:36:25.416Z,2.72
2023-01-08T22:38:52.131Z,2.61
2023-01-08T22:41:21.499Z,2.46
2023-01-08T22:43:52.165Z,2.51
2023-01-08T22:46:18.733Z,2.58
2023-01-08T22:48:45.353Z,2.60
2023-01-08T22:51:11.947Z,2.62
2023-01-08T22:53:38.687Z,2.62
2023-01-08T22:56:11.899Z,2.67
2023-01-08T22:58:40.609Z,2.55
2023-01-08T23:01:18.951Z,2.57
2023-01-08T23:03:48.741Z,2.59
2023-01-08T23:06:17.514Z,2.64
2023-01-08T23:08:44.835Z,2.55
2023-01-08T23:11:14.246Z,2.58
2023-01-08T23:13:41.511Z,2.68
2023-01-08T23:16:09.930Z,2.60
2023-01-08T23:18:37.407Z,2.65
2023-01-08T23:21:09.131Z,2.67
2023-01-08T23:23:36.200Z,2.69
2023-01-08T23:26:05.412Z,2.65
2023-01-08T23:28:32.223Z,2.60
2023-01-08T23:30:58.986Z,2.63
2023-01-08T23:33:25.954Z,2.67
2023-01-08T23:35:52.765Z,2.54
2023-01-08T23:38:19.387Z,2.62
2023-01-08T23:40:46.264Z,2.56
2023-01-08T23:43:12.997Z,2.56
2023-01-08T23:45:39.888Z,2.49
2023-01-08T23:48:07.710Z,2.45
2023-01-08T23:50:34.665Z,2.42
2023-01-08T23:53:01.383Z,2.44
2023-01-08T23:55:28.097Z,2.53
2023-01-08T23:57:54.722Z,2.59
